sensor_id;sensor_type;location;lat;lon;timestamp;P1;durP1;ratioP1;P2;durP2;ratioP2
79677;SDS011;69145;45.544;10.214;2023-05-10T00:00:21;3.90;;;2.78;;
79677;SDS011;69145;45.544;10.214;2023-05-10T00:02:48;4.90;;;2.92;;
79677;SDS011;69145;45.544;10.214;2023-05-10T00:05:14;5.03;;;3.10;;
79677;SDS011;69145;45.544;10.214;2023-05-10T00:07:39;4.60;;;3.05;;
79677;SDS011;69145;45.544;10.214;2023-05-10T00:10:05;4.45;;;2.75;;
79677;SDS011;69145;45.544;10.214;2023-05-10T00:12:31;5.25;;;2.65;;
79677;SDS011;69145;45.544;10.214;2023-05-10T00:14:56;3.77;;;2.50;;
79677;SDS011;69145;45.544;10.214;2023-05-10T00:17:21;4.13;;;2.60;;
79677;SDS011;69145;45.544;10.214;2023-05-10T00:19:47;4.70;;;3.05;;
79677;SDS011;69145;45.544;10.214;2023-05-10T00:22:13;4.45;;;2.95;;
79677;SDS011;69145;45.544;10.214;2023-05-10T00:24:38;5.17;;;2.77;;
79677;SDS011;69145;45.544;10.214;2023-05-10T00:27:03;3.37;;;2.50;;
79677;SDS011;69145;45.544;10.214;2023-05-10T00:29:29;4.60;;;2.38;;
79677;SDS011;69145;45.544;10.214;2023-05-10T00:31:54;3.20;;;2.22;;
79677;SDS011;69145;45.544;10.214;2023-05-10T00:34:20;5.32;;;2.55;;
79677;SDS011;69145;45.544;10.214;2023-05-10T00:36:45;4.57;;;2.95;;
79677;SDS011;69145;45.544;10.214;2023-05-10T00:39:11;3.90;;;2.65;;
79677;SDS011;69145;45.544;10.214;2023-05-10T00:41:37;4.72;;;2.92;;
79677;SDS011;69145;45.544;10.214;2023-05-10T00:44:02;5.20;;;3.20;;
79677;SDS011;69145;45.544;10.214;2023-05-10T00:46:29;4.60;;;2.65;;
79677;SDS011;69145;45.544;10.214;2023-05-10T00:48:54;3.90;;;2.78;;
79677;SDS011;69145;45.544;10.214;2023-05-10T00:51:20;3.92;;;2.95;;
79677;SDS011;69145;45.544;10.214;2023-05-10T00:53:45;4.68;;;2.90;;
79677;SDS011;69145;45.544;10.214;2023-05-10T00:56:11;4.57;;;3.50;;
79677;SDS011;69145;45.544;10.214;2023-05-10T00:58:38;4.93;;;3.05;;
79677;SDS011;69145;45.544;10.214;2023-05-10T01:01:04;6.13;;;3.47;;
79677;SDS011;69145;45.544;10.214;2023-05-10T01:03:31;4.82;;;3.05;;
79677;SDS011;69145;45.544;10.214;2023-05-10T01:05:57;3.90;;;2.92;;
79677;SDS011;69145;45.544;10.214;2023-05-10T01:08:23;4.72;;;2.92;;
79677;SDS011;69145;45.544;10.214;2023-05-10T01:10:48;4.47;;;3.03;;
79677;SDS011;69145;45.544;10.214;2023-05-10T01:13:17;5.32;;;3.50;;
79677;SDS011;69145;45.544;10.214;2023-05-10T01:15:55;4.22;;;2.83;;
79677;SDS011;69145;45.544;10.214;2023-05-10T01:18:21;5.18;;;3.30;;
79677;SDS011;69145;45.544;10.214;2023-05-10T01:20:47;4.40;;;2.78;;
79677;SDS011;69145;45.544;10.214;2023-05-10T01:23:31;5.30;;;3.55;;
79677;SDS011;69145;45.544;10.214;2023-05-10T01:26:28;4.88;;;2.92;;
79677;SDS011;69145;45.544;10.214;2023-05-10T01:34:54;4.50;;;3.08;;
79677;SDS011;69145;45.544;10.214;2023-05-10T01:37:36;6.05;;;3.15;;
79677;SDS011;69145;45.544;10.214;2023-05-10T01:40:13;4.63;;;2.97;;
79677;SDS011;69145;45.544;10.214;2023-05-10T01:42:46;4.15;;;3.00;;
79677;SDS011;69145;45.544;10.214;2023-05-10T01:45:30;4.45;;;2.60;;
79677;SDS011;69145;45.544;10.214;2023-05-10T01:48:11;4.32;;;3.08;;
79677;SDS011;69145;45.544;10.214;2023-05-10T01:50:39;4.68;;;2.85;;
79677;SDS011;69145;45.544;10.214;2023-05-10T01:53:09;5.15;;;3.10;;
79677;SDS011;69145;45.544;10.214;2023-05-10T01:55:41;5.35;;;3.30;;
79677;SDS011;69145;45.544;10.214;2023-05-10T01:58:15;7.38;;;3.35;;
79677;SDS011;69145;45.544;10.214;2023-05-10T02:00:46;4.47;;;3.15;;
79677;SDS011;69145;45.544;10.214;2023-05-10T02:03:14;4.53;;;3.13;;
79677;SDS011;69145;45.544;10.214;2023-05-10T02:05:41;5.55;;;3.30;;
79677;SDS011;69145;45.544;10.214;2023-05-10T02:08:10;4.45;;;3.08;;
79677;SDS011;69145;45.544;10.214;2023-05-10T02:10:37;4.80;;;3.25;;
79677;SDS011;69145;45.544;10.214;2023-05-10T02:13:03;4.72;;;2.95;;
79677;SDS011;69145;45.544;10.214;2023-05-10T02:15:32;3.97;;;2.63;;
79677;SDS011;69145;45.544;10.214;2023-05-10T02:17:59;4.90;;;3.08;;
79677;SDS011;69145;45.544;10.214;2023-05-10T02:20:27;3.97;;;2.80;;
79677;SDS011;69145;45.544;10.214;2023-05-10T02:22:54;6.43;;;3.28;;
79677;SDS011;69145;45.544;10.214;2023-05-10T02:25:21;4.38;;;2.70;;
79677;SDS011;69145;45.544;10.214;2023-05-10T02:27:47;4.45;;;2.75;;
79677;SDS011;69145;45.544;10.214;2023-05-10T02:30:13;4.72;;;3.00;;
79677;SDS011;69145;45.544;10.214;2023-05-10T02:32:40;4.85;;;3.08;;
79677;SDS011;69145;45.544;10.214;2023-05-10T02:35:07;5.18;;;2.83;;
79677;SDS011;69145;45.544;10.214;2023-05-10T02:37:35;4.93;;;2.42;;
79677;SDS011;69145;45.544;10.214;2023-05-10T02:40:02;5.78;;;2.95;;
79677;SDS011;69145;45.544;10.214;2023-05-10T02:42:29;4.07;;;2.88;;
79677;SDS011;69145;45.544;10.214;2023-05-10T02:44:59;4.55;;;2.63;;
79677;SDS011;69145;45.544;10.214;2023-05-10T02:47:26;4.22;;;2.72;;
79677;SDS011;69145;45.544;10.214;2023-05-10T02:49:53;4.38;;;2.63;;
79677;SDS011;69145;45.544;10.214;2023-05-10T02:52:20;5.72;;;3.15;;
79677;SDS011;69145;45.544;10.214;2023-05-10T02:54:50;4.22;;;2.75;;
79677;SDS011;69145;45.544;10.214;2023-05-10T02:57:21;4.35;;;2.60;;
79677;SDS011;69145;45.544;10.214;2023-05-10T02:59:49;4.38;;;2.58;;
79677;SDS011;69145;45.544;10.214;2023-05-10T03:02:15;4.00;;;2.25;;
79677;SDS011;69145;45.544;10.214;2023-05-10T03:04:40;4.00;;;2.45;;
79677;SDS011;69145;45.544;10.214;2023-05-10T03:07:06;4.87;;;2.50;;
79677;SDS011;69145;45.544;10.214;2023-05-10T03:09:32;4.30;;;2.50;;
79677;SDS011;69145;45.544;10.214;2023-05-10T03:12:11;3.88;;;2.50;;
79677;SDS011;69145;45.544;10.214;2023-05-10T03:17:29;4.70;;;2.50;;
79677;SDS011;69145;45.544;10.214;2023-05-10T03:20:04;4.65;;;2.53;;
79677;SDS011;69145;45.544;10.214;2023-05-10T03:22:38;4.25;;;2.28;;
79677;SDS011;69145;45.544;10.214;2023-05-10T03:25:10;4.00;;;2.42;;
79677;SDS011;69145;45.544;10.214;2023-05-10T03:27:38;4.68;;;3.05;;
79677;SDS011;69145;45.544;10.214;2023-05-10T03:30:07;3.70;;;2.58;;
79677;SDS011;69145;45.544;10.214;2023-05-10T03:32:35;4.90;;;2.67;;
79677;SDS011;69145;45.544;10.214;2023-05-10T03:35:09;3.70;;;2.47;;
79677;SDS011;69145;45.544;10.214;2023-05-10T03:37:37;4.07;;;2.30;;
79677;SDS011;69145;45.544;10.214;2023-05-10T03:40:02;3.80;;;2.53;;
79677;SDS011;69145;45.544;10.214;2023-05-10T03:42:28;4.10;;;2.13;;
79677;SDS011;69145;45.544;10.214;2023-05-10T03:44:53;4.55;;;2.55;;
79677;SDS011;69145;45.544;10.214;2023-05-10T03:47:19;4.47;;;2.37;;
79677;SDS011;69145;45.544;10.214;2023-05-10T03:49:44;4.53;;;2.88;;
79677;SDS011;69145;45.544;10.214;2023-05-10T03:52:10;4.30;;;2.63;;
79677;SDS011;69145;45.544;10.214;2023-05-10T03:54:35;4.45;;;2.70;;
79677;SDS011;69145;45.544;10.214;2023-05-10T03:57:01;4.90;;;2.90;;
79677;SDS011;69145;45.544;10.214;2023-05-10T03:59:27;4.35;;;2.53;;
79677;SDS011;69145;45.544;10.214;2023-05-10T04:01:53;5.07;;;3.17;;
79677;SDS011;69145;45.544;10.214;2023-05-10T04:04:18;5.22;;;2.95;;
79677;SDS011;69145;45.544;10.214;2023-05-10T04:06:45;4.97;;;3.05;;
79677;SDS011;69145;45.544;10.214;2023-05-10T04:09:11;5.43;;;3.13;;
79677;SDS011;69145;45.544;10.214;2023-05-10T04:11:36;5.03;;;3.10;;
79677;SDS011;69145;45.544;10.214;2023-05-10T04:14:01;4.72;;;3.05;;
79677;SDS011;69145;45.544;10.214;2023-05-10T04:16:29;5.80;;;2.92;;
79677;SDS011;69145;45.544;10.214;2023-05-10T04:18:55;4.20;;;2.70;;
79677;SDS011;69145;45.544;10.214;2023-05-10T04:21:20;6.07;;;3.47;;
79677;SDS011;69145;45.544;10.214;2023-05-10T04:23:46;4.75;;;3.20;;
79677;SDS011;69145;45.544;10.214;2023-05-10T04:26:12;4.28;;;2.97;;
79677;SDS011;69145;45.544;10.214;2023-05-10T04:28:38;4.47;;;2.63;;
79677;SDS011;69145;45.544;10.214;2023-05-10T04:31:05;5.22;;;3.50;;
79677;SDS011;69145;45.544;10.214;2023-05-10T04:33:32;4.90;;;3.53;;
79677;SDS011;69145;45.544;10.214;2023-05-10T04:35:58;4.18;;;3.08;;
79677;SDS011;69145;45.544;10.214;2023-05-10T04:38:23;5.43;;;3.10;;
79677;SDS011;69145;45.544;10.214;2023-05-10T04:40:49;4.88;;;3.05;;
79677;SDS011;69145;45.544;10.214;2023-05-10T04:43:15;4.32;;;3.15;;
79677;SDS011;69145;45.544;10.214;2023-05-10T04:45:40;5.30;;;3.53;;
79677;SDS011;69145;45.544;10.214;2023-05-10T04:48:05;5.33;;;3.17;;
79677;SDS011;69145;45.544;10.214;2023-05-10T04:50:31;4.53;;;3.03;;
79677;SDS011;69145;45.544;10.214;2023-05-10T04:52:56;4.78;;;3.33;;
79677;SDS011;69145;45.544;10.214;2023-05-10T04:55:22;4.68;;;2.80;;
79677;SDS011;69145;45.544;10.214;2023-05-10T04:57:48;4.60;;;2.95;;
79677;SDS011;69145;45.544;10.214;2023-05-10T05:00:13;4.65;;;3.00;;
79677;SDS011;69145;45.544;10.214;2023-05-10T05:02:41;4.72;;;3.05;;
79677;SDS011;69145;45.544;10.214;2023-05-10T05:05:13;5.03;;;2.95;;
79677;SDS011;69145;45.544;10.214;2023-05-10T05:07:38;5.53;;;3.15;;
79677;SDS011;69145;45.544;10.214;2023-05-10T05:10:05;5.45;;;3.00;;
79677;SDS011;69145;45.544;10.214;2023-05-10T05:12:32;4.80;;;3.03;;
79677;SDS011;69145;45.544;10.214;2023-05-10T05:14:58;5.72;;;3.35;;
79677;SDS011;69145;45.544;10.214;2023-05-10T05:17:23;4.38;;;2.83;;
79677;SDS011;69145;45.544;10.214;2023-05-10T05:19:48;5.28;;;3.42;;
79677;SDS011;69145;45.544;10.214;2023-05-10T05:22:14;5.10;;;3.60;;
79677;SDS011;69145;45.544;10.214;2023-05-10T05:24:39;5.00;;;3.37;;
79677;SDS011;69145;45.544;10.214;2023-05-10T05:27:04;5.18;;;3.65;;
79677;SDS011;69145;45.544;10.214;2023-05-10T05:29:31;5.95;;;4.93;;
79677;SDS011;69145;45.544;10.214;2023-05-10T05:31:56;6.32;;;3.67;;
79677;SDS011;69145;45.544;10.214;2023-05-10T05:34:22;7.65;;;3.92;;
79677;SDS011;69145;45.544;10.214;2023-05-10T05:36:47;17.50;;;4.63;;
79677;SDS011;69145;45.544;10.214;2023-05-10T05:39:13;6.30;;;4.07;;
79677;SDS011;69145;45.544;10.214;2023-05-10T05:41:38;6.00;;;4.10;;
79677;SDS011;69145;45.544;10.214;2023-05-10T05:44:04;5.15;;;3.60;;
79677;SDS011;69145;45.544;10.214;2023-05-10T05:46:29;6.20;;;3.75;;
79677;SDS011;69145;45.544;10.214;2023-05-10T05:48:54;6.25;;;3.78;;
79677;SDS011;69145;45.544;10.214;2023-05-10T05:51:21;6.78;;;4.25;;
79677;SDS011;69145;45.544;10.214;2023-05-10T05:53:46;6.53;;;4.10;;
79677;SDS011;69145;45.544;10.214;2023-05-10T05:56:11;7.23;;;4.47;;
79677;SDS011;69145;45.544;10.214;2023-05-10T05:58:37;7.60;;;4.73;;
79677;SDS011;69145;45.544;10.214;2023-05-10T06:01:02;6.00;;;5.10;;
79677;SDS011;69145;45.544;10.214;2023-05-10T06:03:27;10.57;;;4.82;;
79677;SDS011;69145;45.544;10.214;2023-05-10T06:05:53;7.47;;;4.47;;
79677;SDS011;69145;45.544;10.214;2023-05-10T06:08:18;7.03;;;4.57;;
79677;SDS011;69145;45.544;10.214;2023-05-10T06:10:43;8.80;;;4.67;;
79677;SDS011;69145;45.544;10.214;2023-05-10T06:13:10;8.60;;;5.60;;
79677;SDS011;69145;45.544;10.214;2023-05-10T06:15:35;8.93;;;5.28;;
79677;SDS011;69145;45.544;10.214;2023-05-10T06:18:01;6.93;;;4.85;;
79677;SDS011;69145;45.544;10.214;2023-05-10T06:20:26;7.43;;;4.85;;
79677;SDS011;69145;45.544;10.214;2023-05-10T06:22:52;7.25;;;4.68;;
79677;SDS011;69145;45.544;10.214;2023-05-10T06:25:17;6.30;;;4.78;;
79677;SDS011;69145;45.544;10.214;2023-05-10T06:27:43;7.63;;;5.22;;
79677;SDS011;69145;45.544;10.214;2023-05-10T06:30:09;6.55;;;4.75;;
79677;SDS011;69145;45.544;10.214;2023-05-10T06:32:35;6.10;;;4.75;;
79677;SDS011;69145;45.544;10.214;2023-05-10T06:35:00;6.63;;;4.70;;
79677;SDS011;69145;45.544;10.214;2023-05-10T06:37:26;7.63;;;4.75;;
79677;SDS011;69145;45.544;10.214;2023-05-10T06:39:51;7.18;;;4.90;;
79677;SDS011;69145;45.544;10.214;2023-05-10T06:42:17;6.80;;;4.60;;
79677;SDS011;69145;45.544;10.214;2023-05-10T06:44:42;8.15;;;5.38;;
79677;SDS011;69145;45.544;10.214;2023-05-10T06:47:08;6.95;;;5.38;;
79677;SDS011;69145;45.544;10.214;2023-05-10T06:49:34;9.07;;;5.45;;
79677;SDS011;69145;45.544;10.214;2023-05-10T06:51:59;7.23;;;4.93;;
79677;SDS011;69145;45.544;10.214;2023-05-10T06:54:25;6.37;;;4.80;;
79677;SDS011;69145;45.544;10.214;2023-05-10T06:56:50;6.07;;;4.72;;
79677;SDS011;69145;45.544;10.214;2023-05-10T06:59:15;6.57;;;4.33;;
79677;SDS011;69145;45.544;10.214;2023-05-10T07:01:41;6.93;;;5.15;;
79677;SDS011;69145;45.544;10.214;2023-05-10T07:04:07;7.97;;;5.63;;
79677;SDS011;69145;45.544;10.214;2023-05-10T07:06:33;6.78;;;5.28;;
79677;SDS011;69145;45.544;10.214;2023-05-10T07:08:58;6.47;;;4.88;;
79677;SDS011;69145;45.544;10.214;2023-05-10T07:11:25;8.65;;;5.35;;
79677;SDS011;69145;45.544;10.214;2023-05-10T07:13:51;8.88;;;5.28;;
79677;SDS011;69145;45.544;10.214;2023-05-10T07:16:17;7.10;;;5.60;;
79677;SDS011;69145;45.544;10.214;2023-05-10T07:18:42;8.07;;;5.77;;
79677;SDS011;69145;45.544;10.214;2023-05-10T07:21:07;8.30;;;5.87;;
79677;SDS011;69145;45.544;10.214;2023-05-10T07:23:33;8.15;;;5.43;;
79677;SDS011;69145;45.544;10.214;2023-05-10T07:25:58;7.77;;;5.47;;
79677;SDS011;69145;45.544;10.214;2023-05-10T07:28:24;6.50;;;5.03;;
79677;SDS011;69145;45.544;10.214;2023-05-10T07:30:52;7.97;;;5.20;;
79677;SDS011;69145;45.544;10.214;2023-05-10T07:33:17;6.50;;;5.10;;
79677;SDS011;69145;45.544;10.214;2023-05-10T07:35:43;8.82;;;5.60;;
79677;SDS011;69145;45.544;10.214;2023-05-10T07:38:08;6.50;;;5.32;;
79677;SDS011;69145;45.544;10.214;2023-05-10T07:40:35;7.80;;;5.72;;
79677;SDS011;69145;45.544;10.214;2023-05-10T07:43:04;7.55;;;5.95;;
79677;SDS011;69145;45.544;10.214;2023-05-10T07:45:29;7.80;;;5.55;;
79677;SDS011;69145;45.544;10.214;2023-05-10T07:47:55;8.88;;;6.18;;
79677;SDS011;69145;45.544;10.214;2023-05-10T07:50:20;9.20;;;5.18;;
79677;SDS011;69145;45.544;10.214;2023-05-10T07:52:46;7.88;;;5.90;;
79677;SDS011;69145;45.544;10.214;2023-05-10T07:55:12;7.50;;;5.55;;
79677;SDS011;69145;45.544;10.214;2023-05-10T07:57:38;7.68;;;6.70;;
79677;SDS011;69145;45.544;10.214;2023-05-10T08:00:14;8.63;;;5.57;;
79677;SDS011;69145;45.544;10.214;2023-05-10T08:02:52;8.95;;;6.03;;
79677;SDS011;69145;45.544;10.214;2023-05-10T08:05:18;7.47;;;5.95;;
79677;SDS011;69145;45.544;10.214;2023-05-10T08:07:43;8.80;;;5.88;;
79677;SDS011;69145;45.544;10.214;2023-05-10T08:10:09;7.70;;;5.83;;
79677;SDS011;69145;45.544;10.214;2023-05-10T08:12:36;8.80;;;5.90;;
79677;SDS011;69145;45.544;10.214;2023-05-10T08:15:01;7.50;;;5.63;;
79677;SDS011;69145;45.544;10.214;2023-05-10T08:17:28;8.90;;;6.57;;
79677;SDS011;69145;45.544;10.214;2023-05-10T08:19:53;6.93;;;5.50;;
79677;SDS011;69145;45.544;10.214;2023-05-10T08:22:18;7.17;;;5.70;;
79677;SDS011;69145;45.544;10.214;2023-05-10T08:24:44;7.47;;;6.20;;
79677;SDS011;69145;45.544;10.214;2023-05-10T08:27:09;7.82;;;5.85;;
79677;SDS011;69145;45.544;10.214;2023-05-10T08:29:34;7.27;;;6.07;;
79677;SDS011;69145;45.544;10.214;2023-05-10T08:32:00;7.43;;;5.90;;
79677;SDS011;69145;45.544;10.214;2023-05-10T08:34:28;6.90;;;5.45;;
79677;SDS011;69145;45.544;10.214;2023-05-10T08:36:56;7.60;;;5.65;;
79677;SDS011;69145;45.544;10.214;2023-05-10T08:39:21;6.35;;;5.28;;
79677;SDS011;69145;45.544;10.214;2023-05-10T08:41:46;6.57;;;5.23;;
79677;SDS011;69145;45.544;10.214;2023-05-10T08:44:14;7.47;;;5.10;;
79677;SDS011;69145;45.544;10.214;2023-05-10T08:46:41;6.93;;;5.38;;
79677;SDS011;69145;45.544;10.214;2023-05-10T08:49:11;6.13;;;5.00;;
79677;SDS011;69145;45.544;10.214;2023-05-10T08:51:42;6.45;;;4.65;;
79677;SDS011;69145;45.544;10.214;2023-05-10T08:54:11;5.85;;;4.65;;
79677;SDS011;69145;45.544;10.214;2023-05-10T08:56:37;6.72;;;4.50;;
79677;SDS011;69145;45.544;10.214;2023-05-10T08:59:03;6.63;;;4.47;;
79677;SDS011;69145;45.544;10.214;2023-05-10T09:01:28;5.80;;;4.35;;
79677;SDS011;69145;45.544;10.214;2023-05-10T09:03:56;5.75;;;3.85;;
79677;SDS011;69145;45.544;10.214;2023-05-10T09:06:22;6.03;;;4.30;;
79677;SDS011;69145;45.544;10.214;2023-05-10T09:08:49;5.55;;;4.38;;
79677;SDS011;69145;45.544;10.214;2023-05-10T09:11:14;4.85;;;3.78;;
79677;SDS011;69145;45.544;10.214;2023-05-10T09:13:41;5.15;;;4.05;;
79677;SDS011;69145;45.544;10.214;2023-05-10T09:16:07;5.72;;;4.00;;
79677;SDS011;69145;45.544;10.214;2023-05-10T09:18:32;5.28;;;3.90;;
79677;SDS011;69145;45.544;10.214;2023-05-10T09:20:58;5.47;;;3.55;;
79677;SDS011;69145;45.544;10.214;2023-05-10T09:23:23;5.32;;;3.60;;
79677;SDS011;69145;45.544;10.214;2023-05-10T09:26:03;4.95;;;3.53;;
79677;SDS011;69145;45.544;10.214;2023-05-10T09:28:32;5.07;;;3.92;;
79677;SDS011;69145;45.544;10.214;2023-05-10T09:31:16;4.28;;;3.42;;
79677;SDS011;69145;45.544;10.214;2023-05-10T09:33:45;5.68;;;3.58;;
79677;SDS011;69145;45.544;10.214;2023-05-10T09:38:50;5.40;;;3.42;;
79677;SDS011;69145;45.544;10.214;2023-05-10T09:43:43;5.10;;;3.40;;
79677;SDS011;69145;45.544;10.214;2023-05-10T09:46:08;5.63;;;3.45;;
79677;SDS011;69145;45.544;10.214;2023-05-10T09:48:39;4.80;;;3.13;;
79677;SDS011;69145;45.544;10.214;2023-05-10T09:51:08;4.60;;;3.20;;
79677;SDS011;69145;45.544;10.214;2023-05-10T09:53:33;5.07;;;3.00;;
79677;SDS011;69145;45.544;10.214;2023-05-10T09:55:58;4.53;;;3.30;;
79677;SDS011;69145;45.544;10.214;2023-05-10T09:58:39;5.45;;;3.58;;
79677;SDS011;69145;45.544;10.214;2023-05-10T10:01:12;5.07;;;3.13;;
79677;SDS011;69145;45.544;10.214;2023-05-10T10:03:41;4.55;;;3.25;;
79677;SDS011;69145;45.544;10.214;2023-05-10T10:06:08;5.88;;;3.25;;
79677;SDS011;69145;45.544;10.214;2023-05-10T10:08:33;4.85;;;3.20;;
79677;SDS011;69145;45.544;10.214;2023-05-10T10:10:59;6.35;;;4.43;;
79677;SDS011;69145;45.544;10.214;2023-05-10T10:13:24;5.75;;;4.60;;
79677;SDS011;69145;45.544;10.214;2023-05-10T10:15:50;6.07;;;4.93;;
79677;SDS011;69145;45.544;10.214;2023-05-10T10:18:17;5.57;;;3.95;;
79677;SDS011;69145;45.544;10.214;2023-05-10T10:20:45;5.13;;;3.50;;
79677;SDS011;69145;45.544;10.214;2023-05-10T10:23:11;5.35;;;4.07;;
79677;SDS011;69145;45.544;10.214;2023-05-10T10:25:37;5.47;;;4.13;;
79677;SDS011;69145;45.544;10.214;2023-05-10T10:28:10;5.40;;;3.90;;
79677;SDS011;69145;45.544;10.214;2023-05-10T10:30:47;6.13;;;4.53;;
79677;SDS011;69145;45.544;10.214;2023-05-10T10:35:49;5.93;;;4.32;;
79677;SDS011;69145;45.544;10.214;2023-05-10T10:38:18;5.82;;;4.15;;
79677;SDS011;69145;45.544;10.214;2023-05-10T10:40:43;6.22;;;4.40;;
79677;SDS011;69145;45.544;10.214;2023-05-10T10:43:25;6.43;;;4.47;;
79677;SDS011;69145;45.544;10.214;2023-05-10T10:49:08;6.93;;;4.68;;
79677;SDS011;69145;45.544;10.214;2023-05-10T10:52:12;6.20;;;4.35;;
79677;SDS011;69145;45.544;10.214;2023-05-10T10:55:06;6.68;;;5.10;;
79677;SDS011;69145;45.544;10.214;2023-05-10T10:57:54;6.40;;;4.95;;
79677;SDS011;69145;45.544;10.214;2023-05-10T11:00:53;6.60;;;5.10;;
79677;SDS011;69145;45.544;10.214;2023-05-10T11:06:35;7.82;;;5.63;;
79677;SDS011;69145;45.544;10.214;2023-05-10T11:09:11;9.52;;;6.43;;
79677;SDS011;69145;45.544;10.214;2023-05-10T11:11:52;9.93;;;7.95;;
79677;SDS011;69145;45.544;10.214;2023-05-10T11:14:22;12.02;;;9.27;;
79677;SDS011;69145;45.544;10.214;2023-05-10T11:16:48;9.40;;;7.43;;
79677;SDS011;69145;45.544;10.214;2023-05-10T11:19:15;10.77;;;8.23;;
79677;SDS011;69145;45.544;10.214;2023-05-10T11:21:48;12.48;;;9.60;;
79677;SDS011;69145;45.544;10.214;2023-05-10T11:24:36;11.57;;;8.80;;
79677;SDS011;69145;45.544;10.214;2023-05-10T11:27:02;11.07;;;8.68;;
79677;SDS011;69145;45.544;10.214;2023-05-10T11:29:27;12.75;;;9.75;;
79677;SDS011;69145;45.544;10.214;2023-05-10T11:31:56;12.70;;;9.93;;
79677;SDS011;69145;45.544;10.214;2023-05-10T11:34:24;14.32;;;11.02;;
79677;SDS011;69145;45.544;10.214;2023-05-10T11:36:51;12.98;;;10.27;;
79677;SDS011;69145;45.544;10.214;2023-05-10T11:39:18;11.50;;;9.63;;
79677;SDS011;69145;45.544;10.214;2023-05-10T11:41:46;11.88;;;9.43;;
79677;SDS011;69145;45.544;10.214;2023-05-10T11:44:13;11.60;;;9.35;;
79677;SDS011;69145;45.544;10.214;2023-05-10T11:46:38;10.65;;;8.85;;
79677;SDS011;69145;45.544;10.214;2023-05-10T11:49:04;11.00;;;8.88;;
79677;SDS011;69145;45.544;10.214;2023-05-10T11:51:35;12.45;;;8.73;;
79677;SDS011;69145;45.544;10.214;2023-05-10T11:54:01;10.02;;;7.78;;
79677;SDS011;69145;45.544;10.214;2023-05-10T11:56:32;10.95;;;7.97;;
79677;SDS011;69145;45.544;10.214;2023-05-10T11:58:57;10.00;;;7.70;;
79677;SDS011;69145;45.544;10.214;2023-05-10T12:01:25;8.07;;;6.60;;
79677;SDS011;69145;45.544;10.214;2023-05-10T12:03:52;9.48;;;7.13;;
79677;SDS011;69145;45.544;10.214;2023-05-10T12:06:19;8.90;;;6.93;;
79677;SDS011;69145;45.544;10.214;2023-05-10T12:08:45;8.80;;;6.90;;
79677;SDS011;69145;45.544;10.214;2023-05-10T12:11:12;9.02;;;6.82;;
79677;SDS011;69145;45.544;10.214;2023-05-10T12:13:43;8.93;;;5.88;;
79677;SDS011;69145;45.544;10.214;2023-05-10T12:16:28;8.18;;;6.25;;
79677;SDS011;69145;45.544;10.214;2023-05-10T12:18:55;8.00;;;6.22;;
79677;SDS011;69145;45.544;10.214;2023-05-10T12:21:23;7.93;;;6.45;;
79677;SDS011;69145;45.544;10.214;2023-05-10T12:23:53;8.65;;;6.22;;
79677;SDS011;69145;45.544;10.214;2023-05-10T12:26:23;7.18;;;5.80;;
79677;SDS011;69145;45.544;10.214;2023-05-10T12:28:52;7.60;;;5.93;;
79677;SDS011;69145;45.544;10.214;2023-05-10T12:31:18;9.45;;;5.50;;
79677;SDS011;69145;45.544;10.214;2023-05-10T12:33:44;8.13;;;5.97;;
79677;SDS011;69145;45.544;10.214;2023-05-10T12:36:11;7.15;;;5.63;;
79677;SDS011;69145;45.544;10.214;2023-05-10T12:38:39;6.70;;;5.55;;
79677;SDS011;69145;45.544;10.214;2023-05-10T12:41:12;7.30;;;5.18;;
79677;SDS011;69145;45.544;10.214;2023-05-10T12:43:38;7.07;;;5.80;;
79677;SDS011;69145;45.544;10.214;2023-05-10T12:46:08;7.47;;;4.82;;
79677;SDS011;69145;45.544;10.214;2023-05-10T12:48:38;6.82;;;4.78;;
79677;SDS011;69145;45.544;10.214;2023-05-10T12:51:05;6.85;;;5.40;;
79677;SDS011;69145;45.544;10.214;2023-05-10T12:53:37;6.53;;;4.65;;
79677;SDS011;69145;45.544;10.214;2023-05-10T12:56:03;6.03;;;4.80;;
79677;SDS011;69145;45.544;10.214;2023-05-10T12:58:29;7.70;;;5.45;;
79677;SDS011;69145;45.544;10.214;2023-05-10T13:00:54;6.53;;;4.75;;
79677;SDS011;69145;45.544;10.214;2023-05-10T13:03:21;6.90;;;5.10;;
79677;SDS011;69145;45.544;10.214;2023-05-10T13:05:47;6.78;;;4.97;;
79677;SDS011;69145;45.544;10.214;2023-05-10T13:08:13;6.75;;;4.93;;
79677;SDS011;69145;45.544;10.214;2023-05-10T13:10:38;7.25;;;4.65;;
79677;SDS011;69145;45.544;10.214;2023-05-10T13:13:04;5.57;;;4.32;;
79677;SDS011;69145;45.544;10.214;2023-05-10T13:15:30;5.70;;;4.15;;
79677;SDS011;69145;45.544;10.214;2023-05-10T13:17:55;6.78;;;5.55;;
79677;SDS011;69145;45.544;10.214;2023-05-10T13:20:20;7.03;;;4.70;;
79677;SDS011;69145;45.544;10.214;2023-05-10T13:22:46;5.43;;;4.50;;
79677;SDS011;69145;45.544;10.214;2023-05-10T13:25:12;5.47;;;4.28;;
79677;SDS011;69145;45.544;10.214;2023-05-10T13:27:38;6.05;;;4.55;;
79677;SDS011;69145;45.544;10.214;2023-05-10T13:30:07;6.45;;;4.53;;
79677;SDS011;69145;45.544;10.214;2023-05-10T13:32:33;5.90;;;4.63;;
79677;SDS011;69145;45.544;10.214;2023-05-10T13:34:58;5.88;;;5.13;;
79677;SDS011;69145;45.544;10.214;2023-05-10T13:37:24;5.30;;;4.43;;
79677;SDS011;69145;45.544;10.214;2023-05-10T13:39:49;6.57;;;4.72;;
79677;SDS011;69145;45.544;10.214;2023-05-10T13:42:15;5.45;;;3.90;;
79677;SDS011;69145;45.544;10.214;2023-05-10T13:44:40;5.72;;;4.38;;
79677;SDS011;69145;45.544;10.214;2023-05-10T13:47:11;5.55;;;4.28;;
79677;SDS011;69145;45.544;10.214;2023-05-10T13:49:45;5.28;;;4.18;;
79677;SDS011;69145;45.544;10.214;2023-05-10T13:52:20;5.50;;;4.15;;
79677;SDS011;69145;45.544;10.214;2023-05-10T13:54:47;6.40;;;4.65;;
79677;SDS011;69145;45.544;10.214;2023-05-10T13:57:13;4.90;;;4.00;;
79677;SDS011;69145;45.544;10.214;2023-05-10T13:59:39;5.22;;;4.50;;
79677;SDS011;69145;45.544;10.214;2023-05-10T14:02:04;6.10;;;4.57;;
79677;SDS011;69145;45.544;10.214;2023-05-10T14:04:30;5.40;;;4.03;;
79677;SDS011;69145;45.544;10.214;2023-05-10T14:06:56;5.45;;;4.20;;
79677;SDS011;69145;45.544;10.214;2023-05-10T14:09:22;6.68;;;4.97;;
79677;SDS011;69145;45.544;10.214;2023-05-10T14:11:48;5.55;;;4.40;;
79677;SDS011;69145;45.544;10.214;2023-05-10T14:14:13;7.23;;;4.90;;
79677;SDS011;69145;45.544;10.214;2023-05-10T14:16:45;6.45;;;4.57;;
79677;SDS011;69145;45.544;10.214;2023-05-10T14:19:13;6.13;;;4.90;;
79677;SDS011;69145;45.544;10.214;2023-05-10T14:21:38;5.30;;;4.47;;
79677;SDS011;69145;45.544;10.214;2023-05-10T14:24:04;6.10;;;5.15;;
79677;SDS011;69145;45.544;10.214;2023-05-10T14:26:30;6.75;;;5.53;;
79677;SDS011;69145;45.544;10.214;2023-05-10T14:28:55;6.85;;;5.25;;
79677;SDS011;69145;45.544;10.214;2023-05-10T14:31:21;5.82;;;4.95;;
79677;SDS011;69145;45.544;10.214;2023-05-10T14:33:48;6.55;;;5.18;;
79677;SDS011;69145;45.544;10.214;2023-05-10T14:36:17;6.97;;;5.75;;
79677;SDS011;69145;45.544;10.214;2023-05-10T14:38:46;6.07;;;5.05;;
79677;SDS011;69145;45.544;10.214;2023-05-10T14:41:11;7.00;;;5.95;;
79677;SDS011;69145;45.544;10.214;2023-05-10T14:43:42;10.77;;;6.10;;
79677;SDS011;69145;45.544;10.214;2023-05-10T14:46:07;6.75;;;5.68;;
79677;SDS011;69145;45.544;10.214;2023-05-10T14:48:33;7.60;;;6.32;;
79677;SDS011;69145;45.544;10.214;2023-05-10T14:51:02;6.30;;;5.47;;
79677;SDS011;69145;45.544;10.214;2023-05-10T14:53:33;7.32;;;6.28;;
79677;SDS011;69145;45.544;10.214;2023-05-10T14:55:58;7.97;;;6.00;;
79677;SDS011;69145;45.544;10.214;2023-05-10T14:58:26;7.80;;;6.65;;